Time;durP1;ratioP1;P1;durP2;ratioP2;P2;SDS_P1;SDS_P2;PMS_P1;PMS_P2;Temp;Humidity;BMP_temperature;BMP_pressure;BME280_temperature;BME280_humidity;BME280_pressure;Samples;Min_cycle;Max_cycle;Signal;HPM_P1;HPM_P2
2022/08/11 00:00:35;;;;;;;1.93;1.80;;;20.50;58.60;;;;;;6062412;23;20430;-74
2022/08/11 00:03:06;;;;;;;2.50;2.30;;;20.50;58.80;;;;;;6062759;23;20467;-74
2022/08/11 00:05:43;;;;;;;2.47;2.27;;;20.40;58.90;;;;;;6062423;23;20450;-74
2022/08/11 00:08:11;;;;;;;2.60;2.40;;;20.30;59.20;;;;;;6062706;23;20423;-74
2022/08/11 00:10:39;;;;;;;2.67;2.43;;;20.30;59.30;;;;;;6062482;23;20472;-74
2022/08/11 00:13:08;;;;;;;3.77;2.63;;;20.20;59.30;;;;;;6062877;23;20445;-74
2022/08/11 00:15:41;;;;;;;2.50;2.30;;;20.20;59.30;;;;;;6061666;23;20428;-74
2022/08/11 00:18:10;;;;;;;3.40;2.33;;;20.20;59.60;;;;;;6062535;23;20468;-74
2022/08/11 00:20:41;;;;;;;2.53;2.30;;;20.20;59.80;;;;;;6062799;23;20850;-74
2022/08/11 00:23:10;;;;;;;3.10;2.30;;;20.10;59.60;;;;;;6062567;23;20451;-74
2022/08/11 00:25:40;;;;;;;2.40;2.20;;;20.10;59.60;;;;;;6062347;23;20485;-74
2022/08/11 00:28:27;;;;;;;3.13;2.80;;;20.10;59.60;;;;;;6062588;23;20513;-74
2022/08/11 00:30:56;;;;;;;2.97;2.67;;;20.10;59.90;;;;;;6062348;23;20481;-74
2022/08/11 00:33:25;;;;;;;2.80;2.50;;;20.10;59.80;;;;;;6062790;23;20862;-74
2022/08/11 00:35:59;;;;;;;2.47;2.27;;;20.10;60.00;;;;;;6062160;23;20471;-74
2022/08/11 00:38:31;;;;;;;2.50;2.30;;;20.10;60.40;;;;;;6062645;23;20424;-74
2022/08/11 00:41:08;;;;;;;3.00;2.80;;;20.00;60.10;;;;;;6062029;23;20420;-74
2022/08/11 00:44:04;;;;;;;3.20;2.90;;;20.10;60.20;;;;;;6062595;23;20458;-74
2022/08/11 00:46:42;;;;;;;3.10;2.90;;;20.00;60.30;;;;;;6061649;23;20458;-74
2022/08/11 00:49:18;;;;;;;3.53;2.70;;;19.90;60.40;;;;;;6062169;23;20534;-74
2022/08/11 00:51:57;;;;;;;2.87;2.67;;;19.90;61.10;;;;;;6062705;23;20450;-74
2022/08/11 00:54:43;;;;;;;2.93;2.73;;;19.90;60.70;;;;;;6061848;23;20986;-74
2022/08/11 00:57:34;;;;;;;3.00;2.53;;;19.90;60.90;;;;;;6062324;23;20905;-74
2022/08/11 01:00:12;;;;;;;4.40;2.90;;;19.90;61.50;;;;;;6061866;23;20434;-74
2022/08/11 01:02:48;;;;;;;2.87;2.53;;;19.80;61.70;;;;;;6062260;23;20455;-74
2022/08/11 01:05:42;;;;;;;3.27;2.97;;;19.70;61.90;;;;;;6062078;23;20459;-74
2022/08/11 01:08:41;;;;;;;3.07;2.87;;;19.70;62.50;;;;;;6062010;23;20912;-74
2022/08/11 01:11:33;;;;;;;3.43;2.80;;;19.60;63.40;;;;;;6062284;23;20434;-74
2022/08/11 01:14:29;;;;;;;2.93;2.63;;;19.60;62.80;;;;;;6062266;23;20447;-74
2022/08/11 01:17:34;;;;;;;3.93;3.57;;;19.50;62.90;;;;;;6061988;23;20415;-73
2022/08/11 01:20:33;;;;;;;3.17;2.90;;;19.50;63.30;;;;;;6062151;23;20441;-74
2022/08/11 01:23:29;;;;;;;3.20;3.00;;;19.40;63.70;;;;;;6061620;23;20807;-74
2022/08/11 01:26:31;;;;;;;3.27;3.07;;;19.30;63.70;;;;;;6043760;23;20427;-74
2022/08/11 01:29:43;;;;;;;3.23;3.03;;;19.30;63.90;;;;;;6062820;23;20960;-74
2022/08/11 01:32:56;;;;;;;3.33;3.03;;;19.30;63.90;;;;;;6063562;23;20419;-74
2022/08/11 01:35:40;;;;;;;4.80;3.00;;;19.20;64.20;;;;;;6062978;23;20419;-74
2022/08/11 01:38:37;;;;;;;3.60;2.70;;;19.20;64.50;;;;;;6063629;23;20579;-74
2022/08/11 01:45:11;;;;;;;4.20;3.90;;;19.20;64.40;;;;;;5975472;24;20476;-74
2022/08/11 01:47:52;;;;;;;3.80;3.50;;;19.20;64.50;;;;;;5975460;24;20931;-74
2022/08/11 01:50:35;;;;;;;4.13;3.73;;;19.20;64.90;;;;;;6043121;23;20498;-74
2022/08/11 01:53:12;;;;;;;3.30;3.10;;;19.20;64.90;;;;;;6063186;23;20473;-74
2022/08/11 01:55:47;;;;;;;3.60;3.30;;;19.10;64.80;;;;;;6063009;23;20964;-74
2022/08/11 01:58:26;;;;;;;3.90;3.50;;;19.10;65.20;;;;;;6063062;23;20483;-74
2022/08/11 02:01:02;;;;;;;4.00;3.70;;;19.10;65.40;;;;;;6063336;23;20510;-74
2022/08/11 02:03:39;;;;;;;3.50;3.20;;;19.00;65.80;;;;;;6062969;23;21219;-74
2022/08/11 02:09:08;;;;;;;5.00;3.60;;;19.00;66.50;;;;;;6063296;23;20447;-74
2022/08/11 02:11:36;;;;;;;3.33;3.13;;;19.00;66.70;;;;;;6063133;23;20439;-74
2022/08/11 02:14:19;;;;;;;4.00;3.03;;;19.00;66.90;;;;;;6063194;23;20459;-74
2022/08/11 02:17:10;;;;;;;3.77;3.47;;;19.00;67.10;;;;;;6062836;23;20779;-73
2022/08/11 02:25:37;;;;;;;3.23;2.93;;;19.10;68.20;;;;;;6063108;23;20423;-74
2022/08/11 02:28:10;;;;;;;4.83;3.53;;;19.10;67.50;;;;;;6063549;23;20428;-73
2022/08/11 02:30:41;;;;;;;3.10;2.63;;;19.10;67.60;;;;;;6062990;23;20814;-74
2022/08/11 02:33:23;;;;;;;3.47;3.17;;;19.10;67.70;;;;;;6063100;23;20519;-73
2022/08/11 02:35:58;;;;;;;4.37;3.00;;;19.10;67.80;;;;;;6062761;23;20481;-74
2022/08/11 02:38:32;;;;;;;2.83;2.63;;;19.10;67.90;;;;;;6062349;23;20911;-74
2022/08/11 02:42:21;;;;;;;4.43;3.60;;;19.10;68.00;;;;;;6063526;23;20423;-74
2022/08/11 02:44:15;;;;;;;3.57;3.23;;;19.10;68.30;;;;;;6061382;23;20451;-74
2022/08/11 02:46:51;;;;;;;3.20;2.90;;;19.00;68.30;;;;;;6061946;23;20470;-74
2022/08/11 02:52:25;;;;;;;3.30;3.00;;;19.00;68.70;;;;;;6063008;23;20482;-74
2022/08/11 02:55:14;;;;;;;2.70;2.47;;;19.00;68.90;;;;;;6062659;23;20438;-74
2022/08/11 02:57:47;;;;;;;3.20;3.00;;;19.00;69.10;;;;;;6063085;23;20495;-74
2022/08/11 03:00:17;;;;;;;2.90;2.70;;;18.90;69.20;;;;;;6063234;23;20427;-74
2022/08/11 03:03:05;;;;;;;3.50;3.20;;;18.90;69.50;;;;;;6062932;23;20458;-73
2022/08/11 03:06:03;;;;;;;3.30;3.00;;;18.90;69.50;;;;;;6062434;23;20441;-74
2022/08/11 03:08:47;;;;;;;3.63;2.93;;;18.80;69.40;;;;;;6062012;23;20526;-73
2022/08/11 03:17:16;;;;;;;3.20;2.90;;;18.80;69.60;;;;;;6062755;23;20878;-74
2022/08/11 03:19:53;;;;;;;3.10;2.90;;;18.80;70.00;;;;;;6063097;23;20436;-73
2022/08/11 03:22:26;;;;;;;3.90;2.90;;;18.80;70.20;;;;;;6062707;23;20437;-74
2022/08/11 03:25:01;;;;;;;3.47;3.00;;;18.70;70.30;;;;;;6062504;23;20450;-74
2022/08/11 03:27:44;;;;;;;2.90;2.70;;;18.70;70.50;;;;;;6062932;23;20910;-74
2022/08/11 03:30:14;;;;;;;3.40;2.90;;;18.70;71.10;;;;;;6063198;23;20461;-74
2022/08/11 03:36:14;;;;;;;3.73;3.40;;;18.60;71.50;;;;;;6062529;23;20945;-74
2022/08/11 03:38:54;;;;;;;3.80;3.00;;;18.50;71.40;;;;;;6063008;23;20426;-73
2022/08/11 03:41:44;;;;;;;3.27;2.97;;;18.40;71.90;;;;;;6063061;23;20814;-74
2022/08/11 03:44:28;;;;;;;3.00;2.80;;;18.40;72.30;;;;;;6062723;23;20434;-74
2022/08/11 03:47:11;;;;;;;2.93;2.70;;;18.30;72.90;;;;;;6062544;23;20427;-74
2022/08/11 03:49:53;;;;;;;3.10;2.90;;;18.30;73.20;;;;;;6062550;23;20455;-74
2022/08/11 03:52:28;;;;;;;3.23;3.03;;;18.20;73.50;;;;;;6062381;23;20443;-73
2022/08/11 03:55:04;;;;;;;3.47;3.00;;;18.10;73.60;;;;;;6061974;23;20424;-74
2022/08/11 03:57:58;;;;;;;3.83;3.50;;;18.10;74.00;;;;;;6063074;23;20419;-74
2022/08/11 04:01:01;;;;;;;3.20;3.00;;;18.10;74.40;;;;;;6062986;23;20426;-72
2022/08/11 04:04:06;;;;;;;2.80;2.60;;;18.00;74.80;;;;;;6062949;23;20795;-74
2022/08/11 04:07:18;;;;;;;3.53;3.30;;;18.00;75.10;;;;;;5995655;23;20423;-74
2022/08/11 04:10:33;;;;;;;3.47;3.20;;;18.00;75.30;;;;;;6062405;23;20463;-74
2022/08/11 04:13:28;;;;;;;3.80;3.20;;;18.00;75.30;;;;;;6005207;23;20764;-74
2022/08/11 04:16:09;;;;;;;3.60;3.30;;;18.00;75.50;;;;;;6062401;23;20419;-74
2022/08/11 04:19:16;;;;;;;3.17;2.97;;;18.20;75.80;;;;;;6062917;23;20431;-74
2022/08/11 04:22:21;;;;;;;3.30;3.00;;;18.00;75.60;;;;;;6062348;23;20431;-74
2022/08/11 04:25:07;;;;;;;3.27;3.00;;;18.10;75.70;;;;;;6062532;23;20494;-74
2022/08/11 04:28:32;;;;;;;3.50;3.20;;;18.10;75.90;;;;;;6062654;23;20521;-74
2022/08/11 04:31:15;;;;;;;3.17;2.90;;;18.10;76.10;;;;;;5975006;24;20572;-74
2022/08/11 04:33:59;;;;;;;3.40;3.10;;;18.10;76.70;;;;;;5974404;24;20450;-74
2022/08/11 04:39:54;;;;;;;3.73;3.43;;;18.10;76.90;;;;;;6031160;23;20475;-74
2022/08/11 04:45:56;;;;;;;3.20;3.00;;;18.20;76.70;;;;;;6062564;23;20513;-74
2022/08/11 05:04:03;;;;;;;3.43;3.00;;;18.30;77.90;;;;;;6000359;23;20526;-74
2022/08/11 05:07:14;;;;;;;3.73;3.43;;;18.30;78.10;;;;;;6063107;23;20466;-74
2022/08/11 05:10:14;;;;;;;3.10;2.90;;;18.30;78.30;;;;;;6063144;23;20444;-74
2022/08/11 05:12:46;;;;;;;3.53;3.23;;;18.40;78.70;;;;;;6063169;23;20494;-74
2022/08/11 05:35:27;;;;;;;2.77;2.57;;;18.80;79.60;;;;;;6063000;23;20882;-74
2022/08/11 05:57:35;;;;;;;4.33;3.30;;;19.40;78.30;;;;;;6063026;23;20501;-75
2022/08/11 06:00:09;;;;;;;3.43;3.10;;;19.60;78.00;;;;;;6062759;23;20431;-74
2022/08/11 06:02:41;;;;;;;3.77;3.47;;;19.60;77.60;;;;;;6063184;23;20436;-74
2022/08/11 06:05:10;;;;;;;4.33;3.20;;;19.70;77.90;;;;;;6062782;23;20546;-74
2022/08/11 06:07:38;;;;;;;4.10;3.23;;;19.90;77.50;;;;;;6063200;23;20428;-75
2022/08/11 06:10:08;;;;;;;3.40;3.10;;;20.00;77.10;;;;;;6063024;23;20427;-74
2022/08/11 06:12:39;;;;;;;4.57;3.30;;;20.10;75.50;;;;;;6062817;23;20803;-74
2022/08/11 06:15:09;;;;;;;3.40;3.10;;;20.30;75.50;;;;;;6062166;23;20957;-74
2022/08/11 06:17:45;;;;;;;3.30;2.90;;;20.20;76.00;;;;;;6063057;23;20481;-74
2022/08/11 06:20:15;;;;;;;2.90;2.70;;;20.20;75.20;;;;;;6063229;23;20463;-74
2022/08/11 06:22:46;;;;;;;3.20;2.90;;;20.20;74.70;;;;;;6062761;23;20451;-74
2022/08/11 06:25:15;;;;;;;3.97;3.30;;;20.30;75.10;;;;;;6062941;23;20489;-74
2022/08/11 06:27:45;;;;;;;3.20;3.00;;;20.30;74.90;;;;;;6062554;23;20938;-74
2022/08/11 06:30:13;;;;;;;3.67;2.90;;;20.40;75.00;;;;;;6062537;23;20431;-74
2022/08/11 06:32:43;;;;;;;3.10;2.90;;;20.50;75.40;;;;;;6062736;23;20960;-75
2022/08/11 06:35:19;;;;;;;3.80;3.27;;;20.60;75.00;;;;;;6062137;23;20419;-74
2022/08/11 06:38:02;;;;;;;3.30;3.00;;;20.70;74.20;;;;;;6063330;23;20430;-74
2022/08/11 06:40:36;;;;;;;4.40;3.50;;;20.80;74.30;;;;;;6062989;23;20437;-75
2022/08/11 06:43:15;;;;;;;4.97;4.47;;;21.00;74.30;;;;;;6062342;23;20763;-75
2022/08/11 06:45:51;;;;;;;5.37;4.87;;;21.10;73.30;;;;;;6062567;23;20426;-74
2022/08/11 06:48:21;;;;;;;4.40;3.40;;;21.20;73.70;;;;;;6062833;23;21188;-74
2022/08/11 06:53:39;;;;;;;4.00;3.30;;;21.40;73.10;;;;;;6062253;23;20430;-74
2022/08/11 07:01:52;;;;;;;3.80;2.90;;;22.00;73.20;;;;;;6062809;23;20455;-75
2022/08/11 07:04:30;;;;;;;3.60;3.40;;;22.10;71.90;;;;;;6061900;23;20423;-74
2022/08/11 07:16:04;;;;;;;5.80;3.37;;;22.80;70.60;;;;;;6062828;23;20423;-74
2022/08/11 07:29:51;;;;;;;5.37;3.60;;;24.50;67.60;;;;;;6062889;23;20750;-75
2022/08/11 07:32:25;;;;;;;4.53;3.40;;;24.90;66.10;;;;;;6062647;23;20535;-75
2022/08/11 07:35:00;;;;;;;4.20;3.40;;;25.00;66.20;;;;;;6062581;23;20450;-75
2022/08/11 07:37:32;;;;;;;3.50;2.97;;;25.20;65.20;;;;;;6062640;23;20495;-76
2022/08/11 07:40:00;;;;;;;3.40;3.10;;;25.50;63.50;;;;;;6062742;23;20454;-75
2022/08/11 07:42:31;;;;;;;3.57;3.27;;;25.60;63.20;;;;;;6062781;23;20459;-75
2022/08/11 07:53:18;;;;;;;3.27;2.97;;;26.50;60.30;;;;;;6062827;23;20529;-75
2022/08/11 07:55:47;;;;;;;3.53;3.23;;;26.40;60.40;;;;;;6062145;23;20435;-75
2022/08/11 08:17:51;;;;;;;3.50;2.70;;;27.30;58.10;;;;;;6062811;23;20451;-74
2022/08/11 08:20:21;;;;;;;3.40;3.10;;;27.20;58.00;;;;;;6062764;23;20512;-74
2022/08/11 08:22:55;;;;;;;3.10;2.90;;;27.50;57.40;;;;;;6062076;23;20884;-75
2022/08/11 08:25:24;;;;;;;2.60;2.40;;;27.80;56.70;;;;;;6062227;23;20835;-75
2022/08/11 08:27:53;;;;;;;3.17;2.87;;;28.10;56.30;;;;;;6062342;23;20438;-75
2022/08/11 08:33:07;;;;;;;3.20;2.80;;;28.60;55.70;;;;;;6062645;23;20977;-75
2022/08/11 08:35:36;;;;;;;3.00;2.70;;;29.10;55.40;;;;;;6061994;23;20482;-75
2022/08/11 08:38:04;;;;;;;4.23;2.97;;;29.60;54.80;;;;;;6061440;23;20455;-75
2022/08/11 08:40:31;;;;;;;3.40;2.80;;;29.80;54.00;;;;;;6062348;23;20425;-76
2022/08/11 08:43:03;;;;;;;3.23;2.80;;;30.00;52.90;;;;;;6062641;23;20440;-75
2022/08/11 08:45:35;;;;;;;4.60;3.73;;;30.20;51.50;;;;;;6061927;23;20822;-76
2022/08/11 08:48:06;;;;;;;3.00;2.80;;;30.40;52.00;;;;;;6062336;23;20450;-75
2022/08/11 08:53:27;;;;;;;2.90;2.70;;;30.90;50.10;;;;;;6062649;23;20442;-75
2022/08/11 08:55:58;;;;;;;2.90;2.70;;;31.10;50.20;;;;;;6061886;23;20507;-75
2022/08/11 08:58:26;;;;;;;3.20;2.90;;;31.50;49.80;;;;;;6062151;23;20411;-74
2022/08/11 09:00:54;;;;;;;3.80;2.70;;;31.20;48.10;;;;;;6061937;23;20423;-75
2022/08/11 09:03:22;;;;;;;2.80;2.60;;;30.70;49.10;;;;;;6061922;23;20518;-74
2022/08/11 09:05:55;;;;;;;2.93;2.73;;;30.70;47.70;;;;;;6061682;23;20481;-74
2022/08/11 09:08:23;;;;;;;3.37;2.60;;;30.30;48.40;;;;;;6062363;23;20427;-75
2022/08/11 09:11:48;;;;;;;3.37;2.67;;;29.80;48.80;;;;;;6062713;23;20801;-74
2022/08/11 09:13:43;;;;;;;2.87;2.60;;;29.10;49.20;;;;;;6062195;23;20416;-74
2022/08/11 09:16:11;;;;;;;4.30;2.60;;;29.00;50.50;;;;;;6061687;23;20415;-75
2022/08/11 09:18:39;;;;;;;2.60;2.43;;;29.10;49.30;;;;;;6061903;23;21002;-74
2022/08/11 09:21:08;;;;;;;2.60;2.40;;;28.90;49.10;;;;;;6062073;23;20450;-74
2022/08/11 09:29:10;;;;;;;4.03;2.60;;;29.10;49.50;;;;;;6061876;23;20467;-74
2022/08/11 09:31:38;;;;;;;4.00;2.73;;;29.40;49.50;;;;;;6061562;23;20863;-74
2022/08/11 09:34:05;;;;;;;3.00;2.50;;;29.40;48.50;;;;;;6061607;23;20849;-75
2022/08/11 09:42:05;;;;;;;2.40;2.20;;;29.30;47.50;;;;;;6003871;23;20450;-74
2022/08/11 09:47:22;;;;;;;2.30;2.10;;;28.80;47.80;;;;;;6062059;23;20760;-74
2022/08/11 09:49:52;;;;;;;2.73;2.53;;;29.10;48.10;;;;;;6062081;23;20907;-75
2022/08/11 09:52:23;;;;;;;2.40;2.30;;;29.50;47.60;;;;;;6062947;23;20966;-75
2022/08/11 09:54:52;;;;;;;2.27;2.17;;;29.70;46.60;;;;;;6063000;23;20486;-74
2022/08/11 10:00:08;;;;;;;2.33;2.13;;;29.30;47.50;;;;;;6062727;23;20973;-74
2022/08/11 10:02:40;;;;;;;3.00;2.47;;;29.50;47.10;;;;;;6063037;23;20444;-74
2022/08/11 10:07:56;;;;;;;2.33;2.13;;;30.00;47.00;;;;;;6062956;23;20427;-75
2022/08/11 10:10:23;;;;;;;2.10;2.00;;;30.40;45.70;;;;;;6062889;23;21287;-75
2022/08/11 10:12:59;;;;;;;3.00;1.90;;;30.30;45.40;;;;;;6062685;23;20517;-75
2022/08/11 10:15:32;;;;;;;2.20;2.00;;;30.40;44.40;;;;;;6062776;23;20948;-75
2022/08/11 10:20:51;;;;;;;2.17;2.07;;;30.20;45.90;;;;;;6063027;23;20514;-76
2022/08/11 10:28:54;;;;;;;2.30;2.10;;;31.60;44.50;;;;;;6063001;23;20922;-75
2022/08/11 10:34:08;;;;;;;2.50;2.30;;;31.50;43.30;;;;;;6062845;23;20494;-75
2022/08/11 10:36:42;;;;;;;2.67;2.47;;;31.60;43.20;;;;;;6062862;23;20439;-75
2022/08/11 10:39:15;;;;;;;3.07;2.40;;;31.80;43.70;;;;;;6063174;23;20422;-75
2022/08/11 10:44:32;;;;;;;2.77;2.57;;;32.40;43.50;;;;;;6063123;23;20430;-74
2022/08/11 10:51:11;;;;;;;2.20;2.10;;;32.90;41.50;;;;;;6063272;23;20420;-75
2022/08/11 11:00:57;;;;;;;2.07;1.80;;;32.40;41.90;;;;;;6062473;23;20458;-75
2022/08/11 11:03:26;;;;;;;2.37;2.20;;;32.30;41.70;;;;;;6062989;23;20443;-75
2022/08/11 11:05:56;;;;;;;2.10;2.00;;;32.40;41.60;;;;;;6062436;23;20427;-75
2022/08/11 11:11:19;;;;;;;2.37;2.17;;;32.90;41.70;;;;;;6062268;23;20466;-75
2022/08/11 11:19:25;;;;;;;2.47;1.97;;;31.20;42.10;;;;;;6062879;23;20438;-75
2022/08/11 11:22:36;;;;;;;2.90;2.03;;;31.50;41.80;;;;;;6062866;23;20498;-75
2022/08/11 11:24:51;;;;;;;2.47;2.23;;;31.30;42.00;;;;;;6062521;23;20931;-75
2022/08/11 11:27:26;;;;;;;3.90;2.17;;;31.40;41.70;;;;;;6062125;23;20427;-75
2022/08/11 11:30:02;;;;;;;2.73;1.90;;;31.60;41.50;;;;;;6063039;23;20426;-76
2022/08/11 11:32:40;;;;;;;3.13;2.30;;;32.00;41.20;;;;;;6062660;23;20543;-76
2022/08/11 11:35:19;;;;;;;2.70;1.87;;;32.10;41.10;;;;;;6062745;23;20420;-75
2022/08/11 11:37:50;;;;;;;2.53;2.33;;;32.20;40.60;;;;;;6063081;23;20422;-75
2022/08/11 11:40:20;;;;;;;2.47;2.03;;;32.50;40.60;;;;;;6063115;23;20455;-75
2022/08/11 11:42:50;;;;;;;2.07;1.97;;;32.00;40.60;;;;;;6062592;23;20471;-75
2022/08/11 11:45:19;;;;;;;2.67;2.20;;;31.90;40.90;;;;;;6063031;23;20447;-74
2022/08/11 11:47:51;;;;;;;2.20;2.10;;;32.00;40.40;;;;;;6062574;23;21043;-75
2022/08/11 11:50:24;;;;;;;2.10;2.00;;;32.20;40.50;;;;;;6062843;23;20826;-75
2022/08/11 11:52:54;;;;;;;2.23;2.03;;;32.50;41.50;;;;;;6062978;23;20471;-75
2022/08/11 11:55:24;;;;;;;3.20;2.37;;;32.80;39.60;;;;;;6062584;23;20443;-74
2022/08/11 12:03:26;;;;;;;3.07;2.20;;;33.20;40.50;;;;;;6063174;23;20494;-75
2022/08/11 12:05:53;;;;;;;2.60;2.10;;;33.60;39.10;;;;;;6062106;23;20480;-75
2022/08/11 12:08:22;;;;;;;4.07;1.80;;;33.90;38.90;;;;;;6062633;23;20424;-75
2022/08/11 12:13:39;;;;;;;3.10;2.20;;;33.90;39.30;;;;;;6062223;23;20842;-75
2022/08/11 12:13:43;;;;;;;2.57;2.13;;;34.20;38.80;;;;;;6061869;23;20523;-74
2022/08/11 12:16:11;;;;;;;2.60;2.40;;;34.20;38.70;;;;;;6062230;23;20451;-75
2022/08/11 12:18:40;;;;;;;2.40;2.20;;;33.80;38.30;;;;;;6062166;23;20424;-75
2022/08/11 12:21:09;;;;;;;4.07;2.20;;;33.40;39.10;;;;;;6062366;23;20810;-75
2022/08/11 12:29:26;;;;;;;2.60;2.40;;;32.70;39.80;;;;;;6061093;23;20435;-75
2022/08/11 12:31:54;;;;;;;2.63;2.43;;;33.00;39.60;;;;;;6062383;23;20950;-75
2022/08/11 12:34:23;;;;;;;2.37;2.10;;;33.40;39.00;;;;;;6062221;23;20435;-75
2022/08/11 12:36:56;;;;;;;2.30;2.10;;;33.20;39.20;;;;;;6062230;23;20438;-75
2022/08/11 12:45:26;;;;;;;2.60;2.10;;;33.10;38.50;;;;;;6062576;23;20423;-75
2022/08/11 12:53:25;;;;;;;2.50;2.23;;;34.60;36.90;;;;;;6062077;23;20872;-74
2022/08/11 12:58:43;;;;;;;1.97;1.83;;;35.60;36.10;;;;;;6062298;23;20415;-73
2022/08/11 13:06:43;;;;;;;2.40;1.90;;;34.90;35.30;;;;;;6061714;23;20498;-73
2022/08/11 13:09:11;;;;;;;3.33;1.90;;;34.60;35.70;;;;;;6062059;23;20771;-75
2022/08/11 13:14:26;;;;;;;2.73;2.53;;;34.20;36.40;;;;;;6062264;23;20467;-75
2022/08/11 13:19:42;;;;;;;2.17;1.97;;;33.90;36.20;;;;;;6062183;23;20913;-75
2022/08/11 13:22:10;;;;;;;2.63;2.00;;;34.40;36.00;;;;;;6062111;23;20475;-75
2022/08/11 13:24:38;;;;;;;2.17;1.80;;;35.30;35.20;;;;;;6063533;23;20619;-75
2022/08/11 13:27:06;;;;;;;2.20;1.70;;;35.60;34.40;;;;;;6063291;23;20458;-74
2022/08/11 13:29:35;;;;;;;2.27;2.07;;;35.40;34.70;;;;;;6063072;23;20465;-76
2022/08/11 13:32:04;;;;;;;2.70;2.10;;;35.90;34.00;;;;;;6063425;23;20946;-76
2022/08/11 13:34:33;;;;;;;1.80;1.70;;;36.40;33.90;;;;;;6063701;23;20420;-76
2022/08/11 13:37:03;;;;;;;3.00;2.00;;;36.30;33.50;;;;;;6063288;23;20442;-75
2022/08/11 13:39:33;;;;;;;2.47;2.27;;;36.00;33.80;;;;;;6062943;23;20454;-74
2022/08/11 13:42:02;;;;;;;2.20;2.00;;;36.40;34.20;;;;;;6063464;23;20767;-75
2022/08/11 13:44:31;;;;;;;2.10;1.90;;;37.30;33.90;;;;;;6063281;23;20415;-75
2022/08/11 13:47:02;;;;;;;1.90;1.80;;;37.90;32.60;;;;;;6063338;23;20500;-75
2022/08/11 13:49:32;;;;;;;2.33;1.87;;;37.50;32.10;;;;;;6063471;23;20419;-75
2022/08/11 13:52:00;;;;;;;2.73;2.10;;;36.80;32.40;;;;;;6062976;23;20439;-75
2022/08/11 13:54:37;;;;;;;2.63;2.00;;;36.40;32.80;;;;;;6063344;23;20451;-75
2022/08/11 13:57:07;;;;;;;2.50;1.70;;;36.20;33.50;;;;;;6062882;23;20427;-74
2022/08/11 13:59:36;;;;;;;2.37;2.00;;;36.10;33.50;;;;;;6063292;23;20431;-75
2022/08/11 14:02:07;;;;;;;2.10;1.90;;;36.50;33.10;;;;;;6063148;23;20435;-75
2022/08/11 14:04:41;;;;;;;1.90;1.80;;;37.10;33.10;;;;;;6063292;23;20922;-75
2022/08/11 14:07:10;;;;;;;2.03;1.93;;;37.80;32.40;;;;;;6063045;23;20438;-76
2022/08/11 14:09:42;;;;;;;2.23;1.97;;;38.30;31.90;;;;;;6063061;23;20470;-75
2022/08/11 14:15:06;;;;;;;1.70;1.60;;;37.60;32.10;;;;;;6062989;23;20436;-75
2022/08/11 14:17:36;;;;;;;5.00;2.00;;;37.60;31.20;;;;;;6063373;23;20427;-75
2022/08/11 14:20:09;;;;;;;3.20;1.90;;;37.80;31.40;;;;;;6063509;23;20430;-75
2022/08/11 14:22:40;;;;;;;2.13;1.93;;;37.90;31.10;;;;;;6063168;23;20451;-75
2022/08/11 14:25:08;;;;;;;2.30;1.70;;;38.30;32.00;;;;;;6063096;23;20489;-76
2022/08/11 14:27:35;;;;;;;2.53;1.80;;;39.10;31.40;;;;;;6062738;23;20787;-75
2022/08/11 14:30:04;;;;;;;2.07;1.97;;;39.30;30.90;;;;;;6063463;23;20442;-76
2022/08/11 14:32:32;;;;;;;2.33;1.90;;;38.70;30.40;;;;;;6063067;23;20579;-75
2022/08/11 14:34:59;;;;;;;2.33;1.97;;;38.60;31.00;;;;;;6062498;23;20478;-76
2022/08/11 14:37:28;;;;;;;1.80;1.60;;;38.60;30.30;;;;;;6063080;23;20911;-75
2022/08/11 14:39:58;;;;;;;1.80;1.67;;;38.50;30.80;;;;;;6062641;23;20423;-75
2022/08/11 14:48:01;;;;;;;1.97;1.77;;;37.80;31.40;;;;;;6063700;23;20764;-74
2022/08/11 14:50:30;;;;;;;2.30;2.10;;;37.20;31.30;;;;;;6063126;23;20522;-75
2022/08/11 14:53:02;;;;;;;1.80;1.70;;;37.40;31.50;;;;;;6062974;23;20486;-77
2022/08/11 14:58:22;;;;;;;4.17;1.90;;;38.40;30.50;;;;;;6063657;23;20490;-75
2022/08/11 15:00:53;;;;;;;2.53;1.83;;;38.00;31.00;;;;;;6063039;23;20539;-74
2022/08/11 15:03:20;;;;;;;2.00;1.90;;;37.30;31.50;;;;;;6063344;23;20505;-75
2022/08/11 15:05:49;;;;;;;1.93;1.83;;;36.50;32.20;;;;;;6062610;23;20465;-75
2022/08/11 15:08:19;;;;;;;3.00;2.00;;;36.40;32.20;;;;;;6063267;23;20452;-75
2022/08/11 15:10:47;;;;;;;1.90;1.70;;;36.30;31.90;;;;;;6062331;23;20497;-75
2022/08/11 15:13:18;;;;;;;1.90;1.70;;;36.30;31.90;;;;;;6062645;23;20802;-75
2022/08/11 15:18:31;;;;;;;2.10;1.90;;;35.30;32.60;;;;;;6062775;23;20867;-75
2022/08/11 15:37:44;;;;;;;1.97;1.80;;;35.90;32.40;;;;;;6063195;23;20431;-75
2022/08/11 15:46:01;;;;;;;3.00;2.80;;;37.10;31.10;;;;;;6062574;23;20435;-76
2022/08/11 15:48:35;;;;;;;2.93;1.97;;;37.30;31.00;;;;;;6063049;23;20435;-76
2022/08/11 15:51:11;;;;;;;1.80;1.70;;;38.20;30.80;;;;;;6062576;23;20458;-76
2022/08/11 15:53:42;;;;;;;2.10;1.90;;;38.70;30.00;;;;;;6062648;23;20466;-76
2022/08/11 15:56:11;;;;;;;2.27;2.07;;;38.80;29.90;;;;;;6062573;23;20772;-76
2022/08/11 16:04:17;;;;;;;1.60;1.50;;;39.10;29.90;;;;;;6063233;23;20416;-75
2022/08/11 16:06:58;;;;;;;1.70;1.60;;;38.80;30.00;;;;;;6062927;23;20440;-75
2022/08/11 16:09:31;;;;;;;2.30;2.03;;;37.40;30.70;;;;;;6062863;23;20419;-75
2022/08/11 16:12:03;;;;;;;2.13;1.93;;;36.90;31.30;;;;;;6062620;23;20436;-76
2022/08/11 16:17:29;;;;;;;2.23;1.80;;;36.40;31.20;;;;;;6062691;23;20929;-75
2022/08/11 16:19:58;;;;;;;2.27;1.93;;;36.20;31.60;;;;;;6062725;23;20450;-76
2022/08/11 16:22:33;;;;;;;1.87;1.77;;;36.00;31.90;;;;;;6062478;23;20948;-75
2022/08/11 16:25:02;;;;;;;2.33;1.83;;;35.50;31.80;;;;;;6062445;23;20431;-75
2022/08/11 16:27:33;;;;;;;2.83;2.13;;;34.60;32.70;;;;;;6062459;23;20454;-76
2022/08/11 16:30:04;;;;;;;1.90;1.70;;;34.10;33.50;;;;;;6062852;23;20447;-75
2022/08/11 16:32:32;;;;;;;2.40;1.90;;;33.90;33.40;;;;;;6062664;23;20435;-76
2022/08/11 16:40:33;;;;;;;2.90;2.57;;;32.60;35.00;;;;;;6062669;23;20443;-75
2022/08/11 16:48:37;;;;;;;2.67;2.30;;;31.50;35.90;;;;;;6061995;23;20955;-75
2022/08/11 16:51:05;;;;;;;2.80;2.33;;;31.30;35.70;;;;;;6062325;23;21025;-75
2022/08/11 16:53:32;;;;;;;2.67;2.10;;;31.10;36.20;;;;;;6062505;23;20509;-75
2022/08/11 16:56:03;;;;;;;2.60;2.40;;;30.90;36.20;;;;;;6062233;23;20847;-75
2022/08/11 17:01:21;;;;;;;3.20;2.30;;;30.50;36.80;;;;;;6063996;23;20479;-75
2022/08/11 17:18:05;;;;;;;2.30;2.10;;;29.60;38.00;;;;;;6063757;23;20446;-75
2022/08/11 17:20:33;;;;;;;3.20;2.23;;;29.60;38.50;;;;;;6063501;23;21177;-75
2022/08/11 17:25:48;;;;;;;2.20;2.03;;;29.50;38.60;;;;;;6063348;23;20502;-75
2022/08/11 17:28:18;;;;;;;2.13;2.00;;;29.30;38.70;;;;;;6063679;23;20442;-75
2022/08/11 17:36:19;;;;;;;2.20;2.10;;;29.00;39.50;;;;;;6063157;23;20473;-75
2022/08/11 17:38:48;;;;;;;3.23;2.67;;;28.90;39.50;;;;;;6063960;23;20499;-75
2022/08/11 17:49:38;;;;;;;2.00;1.90;;;28.70;40.40;;;;;;6063602;23;20443;-75
2022/08/11 18:00:25;;;;;;;2.23;2.10;;;28.40;40.10;;;;;;6062909;23;20506;-75
2022/08/11 18:05:43;;;;;;;2.10;1.70;;;28.20;39.80;;;;;;6062962;23;20454;-75
